sensor_id;sensor_type;location;lat;lon;timestamp;P1;durP1;ratioP1;P2;durP2;ratioP2
54855;SDS011;40748;53.168;5.800;2022-09-09T00:01:08;0.30;;;0.20;;
54855;SDS011;40748;53.168;5.800;2022-09-09T00:03:38;0.30;;;0.20;;
54855;SDS011;40748;53.168;5.800;2022-09-09T00:06:07;0.30;;;0.20;;
54855;SDS011;40748;53.168;5.800;2022-09-09T00:08:53;2.30;;;0.40;;
54855;SDS011;40748;53.168;5.800;2022-09-09T00:16:07;2.30;;;0.40;;
54855;SDS011;40748;53.168;5.800;2022-09-09T00:18:46;0.30;;;0.10;;
54855;SDS011;40748;53.168;5.800;2022-09-09T00:21:06;0.30;;;0.10;;
54855;SDS011;40748;53.168;5.800;2022-09-09T00:23:34;0.30;;;0.10;;
54855;SDS011;40748;53.168;5.800;2022-09-09T00:26:06;0.30;;;0.10;;
54855;SDS011;40748;53.168;5.800;2022-09-09T00:31:11;0.70;;;0.30;;
54855;SDS011;40748;53.168;5.800;2022-09-09T00:33:31;0.70;;;0.30;;
54855;SDS011;40748;53.168;5.800;2022-09-09T00:36:02;0.70;;;0.30;;
54855;SDS011;40748;53.168;5.800;2022-09-09T00:38:34;0.40;;;0.10;;
54855;SDS011;40748;53.168;5.800;2022-09-09T00:41:09;0.40;;;0.10;;
54855;SDS011;40748;53.168;5.800;2022-09-09T00:43:34;0.40;;;0.10;;
54855;SDS011;40748;53.168;5.800;2022-09-09T00:46:23;0.40;;;0.10;;
54855;SDS011;40748;53.168;5.800;2022-09-09T00:48:37;0.50;;;0.20;;
54855;SDS011;40748;53.168;5.800;2022-09-09T00:53:39;0.50;;;0.20;;
54855;SDS011;40748;53.168;5.800;2022-09-09T00:56:09;0.50;;;0.20;;
54855;SDS011;40748;53.168;5.800;2022-09-09T01:01:04;0.40;;;0.10;;
54855;SDS011;40748;53.168;5.800;2022-09-09T01:06:13;0.40;;;0.10;;
54855;SDS011;40748;53.168;5.800;2022-09-09T01:08:48;0.70;;;0.40;;
54855;SDS011;40748;53.168;5.800;2022-09-09T01:11:02;0.70;;;0.40;;
54855;SDS011;40748;53.168;5.800;2022-09-09T01:13:34;0.70;;;0.40;;
54855;SDS011;40748;53.168;5.800;2022-09-09T01:16:04;0.70;;;0.40;;
54855;SDS011;40748;53.168;5.800;2022-09-09T01:18:34;0.50;;;0.20;;
54855;SDS011;40748;53.168;5.800;2022-09-09T01:21:09;0.50;;;0.20;;
54855;SDS011;40748;53.168;5.800;2022-09-09T01:23:45;0.50;;;0.20;;
54855;SDS011;40748;53.168;5.800;2022-09-09T01:26:10;0.50;;;0.20;;
54855;SDS011;40748;53.168;5.800;2022-09-09T01:31:03;0.40;;;0.10;;
54855;SDS011;40748;53.168;5.800;2022-09-09T01:36:06;0.40;;;0.10;;
54855;SDS011;40748;53.168;5.800;2022-09-09T01:38:32;0.30;;;0.10;;
54855;SDS011;40748;53.168;5.800;2022-09-09T01:48:32;1.40;;;0.50;;
54855;SDS011;40748;53.168;5.800;2022-09-09T01:53:32;1.40;;;0.50;;
54855;SDS011;40748;53.168;5.800;2022-09-09T01:58:37;0.30;;;0.00;;
54855;SDS011;40748;53.168;5.800;2022-09-09T02:01:08;0.30;;;0.00;;
54855;SDS011;40748;53.168;5.800;2022-09-09T02:03:32;0.30;;;0.00;;
54855;SDS011;40748;53.168;5.800;2022-09-09T02:06:08;0.30;;;0.00;;
54855;SDS011;40748;53.168;5.800;2022-09-09T02:08:39;0.40;;;0.20;;
54855;SDS011;40748;53.168;5.800;2022-09-09T02:13:35;0.40;;;0.20;;
54855;SDS011;40748;53.168;5.800;2022-09-09T02:16:07;0.40;;;0.20;;
54855;SDS011;40748;53.168;5.800;2022-09-09T02:18:35;1.00;;;0.20;;
54855;SDS011;40748;53.168;5.800;2022-09-09T02:26:03;1.00;;;0.20;;
54855;SDS011;40748;53.168;5.800;2022-09-09T02:28:33;0.70;;;0.50;;
54855;SDS011;40748;53.168;5.800;2022-09-09T02:31:02;0.70;;;0.50;;
54855;SDS011;40748;53.168;5.800;2022-09-09T02:41:02;0.50;;;0.20;;
54855;SDS011;40748;53.168;5.800;2022-09-09T02:48:36;0.50;;;0.20;;
54855;SDS011;40748;53.168;5.800;2022-09-09T02:51:06;0.50;;;0.20;;
54855;SDS011;40748;53.168;5.800;2022-09-09T02:58:32;1.10;;;0.50;;
54855;SDS011;40748;53.168;5.800;2022-09-09T03:01:02;1.10;;;0.50;;
54855;SDS011;40748;53.168;5.800;2022-09-09T03:03:32;1.10;;;0.50;;
54855;SDS011;40748;53.168;5.800;2022-09-09T03:06:02;1.10;;;0.50;;
54855;SDS011;40748;53.168;5.800;2022-09-09T03:08:32;0.40;;;0.10;;
54855;SDS011;40748;53.168;5.800;2022-09-09T03:11:02;0.40;;;0.10;;
54855;SDS011;40748;53.168;5.800;2022-09-09T03:13:31;0.40;;;0.10;;
54855;SDS011;40748;53.168;5.800;2022-09-09T03:16:02;0.40;;;0.10;;
54855;SDS011;40748;53.168;5.800;2022-09-09T03:18:32;0.40;;;0.10;;
54855;SDS011;40748;53.168;5.800;2022-09-09T03:21:02;0.40;;;0.10;;
54855;SDS011;40748;53.168;5.800;2022-09-09T03:23:32;0.40;;;0.10;;
54855;SDS011;40748;53.168;5.800;2022-09-09T03:31:03;0.60;;;0.50;;
54855;SDS011;40748;53.168;5.800;2022-09-09T03:33:32;0.60;;;0.50;;
54855;SDS011;40748;53.168;5.800;2022-09-09T03:38:32;1.80;;;1.00;;
54855;SDS011;40748;53.168;5.800;2022-09-09T03:41:02;1.80;;;1.00;;
54855;SDS011;40748;53.168;5.800;2022-09-09T03:48:32;0.50;;;0.20;;
54855;SDS011;40748;53.168;5.800;2022-09-09T03:51:02;0.50;;;0.20;;
54855;SDS011;40748;53.168;5.800;2022-09-09T03:53:32;0.50;;;0.20;;
54855;SDS011;40748;53.168;5.800;2022-09-09T03:56:02;0.50;;;0.20;;
54855;SDS011;40748;53.168;5.800;2022-09-09T03:58:32;0.60;;;0.20;;
54855;SDS011;40748;53.168;5.800;2022-09-09T04:03:32;0.60;;;0.20;;
54855;SDS011;40748;53.168;5.800;2022-09-09T04:06:03;0.60;;;0.20;;
54855;SDS011;40748;53.168;5.800;2022-09-09T04:08:32;0.50;;;0.30;;
54855;SDS011;40748;53.168;5.800;2022-09-09T04:11:02;0.50;;;0.30;;
54855;SDS011;40748;53.168;5.800;2022-09-09T04:13:33;0.50;;;0.30;;
54855;SDS011;40748;53.168;5.800;2022-09-09T04:18:32;1.40;;;0.50;;
54855;SDS011;40748;53.168;5.800;2022-09-09T04:23:33;1.40;;;0.50;;
54855;SDS011;40748;53.168;5.800;2022-09-09T04:26:03;1.40;;;0.50;;
54855;SDS011;40748;53.168;5.800;2022-09-09T04:28:33;0.30;;;0.00;;
54855;SDS011;40748;53.168;5.800;2022-09-09T04:31:04;0.30;;;0.00;;
54855;SDS011;40748;53.168;5.800;2022-09-09T04:33:32;0.30;;;0.00;;
54855;SDS011;40748;53.168;5.800;2022-09-09T04:36:02;0.30;;;0.00;;
54855;SDS011;40748;53.168;5.800;2022-09-09T04:38:32;0.70;;;0.30;;
54855;SDS011;40748;53.168;5.800;2022-09-09T04:43:32;0.70;;;0.30;;
54855;SDS011;40748;53.168;5.800;2022-09-09T04:46:02;0.70;;;0.30;;
54855;SDS011;40748;53.168;5.800;2022-09-09T04:48:32;7.00;;;0.50;;
54855;SDS011;40748;53.168;5.800;2022-09-09T04:53:32;7.00;;;0.50;;
54855;SDS011;40748;53.168;5.800;2022-09-09T04:56:03;7.00;;;0.50;;
54855;SDS011;40748;53.168;5.800;2022-09-09T04:58:32;0.20;;;0.10;;
54855;SDS011;40748;53.168;5.800;2022-09-09T05:01:02;0.20;;;0.10;;
54855;SDS011;40748;53.168;5.800;2022-09-09T05:03:32;0.20;;;0.10;;
54855;SDS011;40748;53.168;5.800;2022-09-09T05:06:03;0.20;;;0.10;;
54855;SDS011;40748;53.168;5.800;2022-09-09T05:08:32;1.00;;;0.30;;
54855;SDS011;40748;53.168;5.800;2022-09-09T05:13:32;1.00;;;0.30;;
54855;SDS011;40748;53.168;5.800;2022-09-09T05:21:02;2.40;;;0.90;;
54855;SDS011;40748;53.168;5.800;2022-09-09T05:23:32;2.40;;;0.90;;
54855;SDS011;40748;53.168;5.800;2022-09-09T05:26:03;2.40;;;0.90;;
54855;SDS011;40748;53.168;5.800;2022-09-09T05:28:34;0.40;;;0.20;;
54855;SDS011;40748;53.168;5.800;2022-09-09T05:31:03;0.40;;;0.20;;
54855;SDS011;40748;53.168;5.800;2022-09-09T05:33:32;0.40;;;0.20;;
54855;SDS011;40748;53.168;5.800;2022-09-09T05:36:03;0.40;;;0.20;;
54855;SDS011;40748;53.168;5.800;2022-09-09T05:38:32;0.50;;;0.30;;
54855;SDS011;40748;53.168;5.800;2022-09-09T05:41:02;0.50;;;0.30;;
54855;SDS011;40748;53.168;5.800;2022-09-09T05:43:32;0.50;;;0.30;;
54855;SDS011;40748;53.168;5.800;2022-09-09T05:46:03;0.50;;;0.30;;
54855;SDS011;40748;53.168;5.800;2022-09-09T05:48:33;0.80;;;0.40;;
54855;SDS011;40748;53.168;5.800;2022-09-09T05:51:02;0.80;;;0.40;;
54855;SDS011;40748;53.168;5.800;2022-09-09T05:53:32;0.80;;;0.40;;
54855;SDS011;40748;53.168;5.800;2022-09-09T05:58:33;0.30;;;0.10;;
54855;SDS011;40748;53.168;5.800;2022-09-09T06:01:04;0.30;;;0.10;;
54855;SDS011;40748;53.168;5.800;2022-09-09T06:03:32;0.30;;;0.10;;
54855;SDS011;40748;53.168;5.800;2022-09-09T06:06:03;0.30;;;0.10;;
54855;SDS011;40748;53.168;5.800;2022-09-09T06:08:33;0.70;;;0.20;;
54855;SDS011;40748;53.168;5.800;2022-09-09T06:11:03;0.70;;;0.20;;
54855;SDS011;40748;53.168;5.800;2022-09-09T06:13:32;0.70;;;0.20;;
54855;SDS011;40748;53.168;5.800;2022-09-09T06:16:02;0.70;;;0.20;;
54855;SDS011;40748;53.168;5.800;2022-09-09T06:18:32;0.60;;;0.30;;
54855;SDS011;40748;53.168;5.800;2022-09-09T06:21:04;0.60;;;0.30;;
54855;SDS011;40748;53.168;5.800;2022-09-09T06:23:33;0.60;;;0.30;;
54855;SDS011;40748;53.168;5.800;2022-09-09T06:26:04;0.60;;;0.30;;
54855;SDS011;40748;53.168;5.800;2022-09-09T06:28:32;0.50;;;0.20;;
54855;SDS011;40748;53.168;5.800;2022-09-09T06:31:04;0.50;;;0.20;;
54855;SDS011;40748;53.168;5.800;2022-09-09T06:33:33;0.50;;;0.20;;
54855;SDS011;40748;53.168;5.800;2022-09-09T06:38:32;0.40;;;0.20;;
54855;SDS011;40748;53.168;5.800;2022-09-09T06:41:02;0.40;;;0.20;;
54855;SDS011;40748;53.168;5.800;2022-09-09T06:46:04;0.40;;;0.20;;
54855;SDS011;40748;53.168;5.800;2022-09-09T06:48:32;0.90;;;0.40;;
54855;SDS011;40748;53.168;5.800;2022-09-09T06:51:04;0.90;;;0.40;;
54855;SDS011;40748;53.168;5.800;2022-09-09T06:53:33;0.90;;;0.40;;
54855;SDS011;40748;53.168;5.800;2022-09-09T06:56:03;0.90;;;0.40;;
54855;SDS011;40748;53.168;5.800;2022-09-09T06:58:32;0.60;;;0.30;;
54855;SDS011;40748;53.168;5.800;2022-09-09T07:01:03;0.60;;;0.30;;
54855;SDS011;40748;53.168;5.800;2022-09-09T07:03:32;0.60;;;0.30;;
54855;SDS011;40748;53.168;5.800;2022-09-09T07:06:02;0.60;;;0.30;;
54855;SDS011;40748;53.168;5.800;2022-09-09T07:08:32;2.00;;;0.40;;
54855;SDS011;40748;53.168;5.800;2022-09-09T07:11:03;2.00;;;0.40;;
54855;SDS011;40748;53.168;5.800;2022-09-09T07:13:33;2.00;;;0.40;;
54855;SDS011;40748;53.168;5.800;2022-09-09T07:16:03;0.80;;;0.10;;
54855;SDS011;40748;53.168;5.800;2022-09-09T07:18:32;0.80;;;0.10;;
54855;SDS011;40748;53.168;5.800;2022-09-09T07:21:03;0.80;;;0.10;;
54855;SDS011;40748;53.168;5.800;2022-09-09T07:23:32;0.80;;;0.10;;
54855;SDS011;40748;53.168;5.800;2022-09-09T07:26:02;0.50;;;0.20;;
54855;SDS011;40748;53.168;5.800;2022-09-09T07:28:32;0.50;;;0.20;;
54855;SDS011;40748;53.168;5.800;2022-09-09T07:31:02;0.50;;;0.20;;
54855;SDS011;40748;53.168;5.800;2022-09-09T07:33:34;0.50;;;0.20;;
54855;SDS011;40748;53.168;5.800;2022-09-09T07:36:05;0.30;;;0.10;;
54855;SDS011;40748;53.168;5.800;2022-09-09T07:38:32;0.30;;;0.10;;
54855;SDS011;40748;53.168;5.800;2022-09-09T07:41:04;0.30;;;0.10;;
54855;SDS011;40748;53.168;5.800;2022-09-09T07:43:32;0.30;;;0.10;;
54855;SDS011;40748;53.168;5.800;2022-09-09T07:46:02;0.30;;;0.10;;
54855;SDS011;40748;53.168;5.800;2022-09-09T07:48:32;0.30;;;0.10;;
54855;SDS011;40748;53.168;5.800;2022-09-09T07:51:04;0.30;;;0.10;;
54855;SDS011;40748;53.168;5.800;2022-09-09T07:53:32;0.30;;;0.10;;
54855;SDS011;40748;53.168;5.800;2022-09-09T07:56:03;0.60;;;0.10;;
54855;SDS011;40748;53.168;5.800;2022-09-09T07:58:32;0.60;;;0.10;;
54855;SDS011;40748;53.168;5.800;2022-09-09T08:01:07;0.60;;;0.10;;
54855;SDS011;40748;53.168;5.800;2022-09-09T08:03:32;0.60;;;0.10;;
54855;SDS011;40748;53.168;5.800;2022-09-09T08:06:03;0.90;;;0.30;;
54855;SDS011;40748;53.168;5.800;2022-09-09T08:08:32;0.90;;;0.30;;
54855;SDS011;40748;53.168;5.800;2022-09-09T08:11:04;0.90;;;0.30;;
54855;SDS011;40748;53.168;5.800;2022-09-09T08:13:32;0.90;;;0.30;;
54855;SDS011;40748;53.168;5.800;2022-09-09T08:16:03;0.10;;;0.00;;
54855;SDS011;40748;53.168;5.800;2022-09-09T08:18:32;0.10;;;0.00;;
54855;SDS011;40748;53.168;5.800;2022-09-09T08:21:07;0.10;;;0.00;;
54855;SDS011;40748;53.168;5.800;2022-09-09T08:23:32;0.10;;;0.00;;
54855;SDS011;40748;53.168;5.800;2022-09-09T08:26:03;1.60;;;0.60;;
54855;SDS011;40748;53.168;5.800;2022-09-09T08:28:32;1.60;;;0.60;;
54855;SDS011;40748;53.168;5.800;2022-09-09T08:31:11;1.60;;;0.60;;
54855;SDS011;40748;53.168;5.800;2022-09-09T08:33:32;1.60;;;0.60;;
54855;SDS011;40748;53.168;5.800;2022-09-09T08:36:02;0.20;;;0.10;;
54855;SDS011;40748;53.168;5.800;2022-09-09T08:38:32;0.20;;;0.10;;
54855;SDS011;40748;53.168;5.800;2022-09-09T08:41:28;0.20;;;0.10;;
54855;SDS011;40748;53.168;5.800;2022-09-09T08:43:33;0.20;;;0.10;;
54855;SDS011;40748;53.168;5.800;2022-09-09T08:46:08;0.80;;;0.40;;
54855;SDS011;40748;53.168;5.800;2022-09-09T08:48:44;0.80;;;0.40;;
54855;SDS011;40748;53.168;5.800;2022-09-09T08:51:03;0.80;;;0.40;;
54855;SDS011;40748;53.168;5.800;2022-09-09T08:53:38;0.80;;;0.40;;
54855;SDS011;40748;53.168;5.800;2022-09-09T08:56:06;0.20;;;0.00;;
54855;SDS011;40748;53.168;5.800;2022-09-09T08:58:33;0.20;;;0.00;;
54855;SDS011;40748;53.168;5.800;2022-09-09T09:01:16;0.20;;;0.00;;
54855;SDS011;40748;53.168;5.800;2022-09-09T09:03:40;0.20;;;0.00;;
54855;SDS011;40748;53.168;5.800;2022-09-09T09:06:06;2.10;;;0.40;;
54855;SDS011;40748;53.168;5.800;2022-09-09T09:08:39;2.10;;;0.40;;
54855;SDS011;40748;53.168;5.800;2022-09-09T09:11:02;2.10;;;0.40;;
54855;SDS011;40748;53.168;5.800;2022-09-09T09:13:38;2.10;;;0.40;;
54855;SDS011;40748;53.168;5.800;2022-09-09T09:16:09;0.40;;;0.10;;
54855;SDS011;40748;53.168;5.800;2022-09-09T09:18:32;0.40;;;0.10;;
54855;SDS011;40748;53.168;5.800;2022-09-09T09:21:07;0.40;;;0.10;;
54855;SDS011;40748;53.168;5.800;2022-09-09T09:23:40;0.40;;;0.10;;
54855;SDS011;40748;53.168;5.800;2022-09-09T09:26:07;0.20;;;0.00;;
54855;SDS011;40748;53.168;5.800;2022-09-09T09:28:33;0.20;;;0.00;;
54855;SDS011;40748;53.168;5.800;2022-09-09T09:31:05;0.20;;;0.00;;
54855;SDS011;40748;53.168;5.800;2022-09-09T09:33:44;0.20;;;0.00;;
54855;SDS011;40748;53.168;5.800;2022-09-09T09:36:02;0.50;;;0.20;;
54855;SDS011;40748;53.168;5.800;2022-09-09T09:38:32;0.50;;;0.20;;
54855;SDS011;40748;53.168;5.800;2022-09-09T09:41:02;0.50;;;0.20;;
54855;SDS011;40748;53.168;5.800;2022-09-09T09:43:34;0.50;;;0.20;;
54855;SDS011;40748;53.168;5.800;2022-09-09T09:46:04;0.40;;;0.10;;
54855;SDS011;40748;53.168;5.800;2022-09-09T09:48:32;0.40;;;0.10;;
54855;SDS011;40748;53.168;5.800;2022-09-09T09:51:07;0.40;;;0.10;;
54855;SDS011;40748;53.168;5.800;2022-09-09T09:53:33;0.40;;;0.10;;
54855;SDS011;40748;53.168;5.800;2022-09-09T09:56:05;0.90;;;0.30;;
54855;SDS011;40748;53.168;5.800;2022-09-09T09:58:33;0.90;;;0.30;;
54855;SDS011;40748;53.168;5.800;2022-09-09T10:01:02;0.90;;;0.30;;
54855;SDS011;40748;53.168;5.800;2022-09-09T10:03:34;0.90;;;0.30;;
54855;SDS011;40748;53.168;5.800;2022-09-09T10:06:02;0.40;;;0.20;;
54855;SDS011;40748;53.168;5.800;2022-09-09T10:08:34;0.40;;;0.20;;
54855;SDS011;40748;53.168;5.800;2022-09-09T10:11:12;0.40;;;0.20;;
54855;SDS011;40748;53.168;5.800;2022-09-09T10:13:39;0.40;;;0.20;;
54855;SDS011;40748;53.168;5.800;2022-09-09T10:16:13;0.20;;;0.10;;
54855;SDS011;40748;53.168;5.800;2022-09-09T10:18:42;0.20;;;0.10;;
54855;SDS011;40748;53.168;5.800;2022-09-09T10:21:10;0.20;;;0.10;;
54855;SDS011;40748;53.168;5.800;2022-09-09T10:23:45;0.20;;;0.10;;
54855;SDS011;40748;53.168;5.800;2022-09-09T10:26:14;0.20;;;0.00;;
54855;SDS011;40748;53.168;5.800;2022-09-09T10:28:46;0.20;;;0.00;;
54855;SDS011;40748;53.168;5.800;2022-09-09T10:31:14;0.20;;;0.00;;
54855;SDS011;40748;53.168;5.800;2022-09-09T10:33:37;0.20;;;0.00;;
54855;SDS011;40748;53.168;5.800;2022-09-09T10:36:07;0.10;;;0.00;;
54855;SDS011;40748;53.168;5.800;2022-09-09T10:38:39;0.10;;;0.00;;
54855;SDS011;40748;53.168;5.800;2022-09-09T10:41:14;0.10;;;0.00;;
54855;SDS011;40748;53.168;5.800;2022-09-09T10:43:42;0.10;;;0.00;;
54855;SDS011;40748;53.168;5.800;2022-09-09T10:46:10;0.20;;;0.00;;
54855;SDS011;40748;53.168;5.800;2022-09-09T10:48:43;0.20;;;0.00;;
54855;SDS011;40748;53.168;5.800;2022-09-09T10:51:15;0.20;;;0.00;;
54855;SDS011;40748;53.168;5.800;2022-09-09T10:53:36;0.20;;;0.00;;
54855;SDS011;40748;53.168;5.800;2022-09-09T10:56:06;0.10;;;0.00;;
54855;SDS011;40748;53.168;5.800;2022-09-09T10:58:38;0.10;;;0.00;;
54855;SDS011;40748;53.168;5.800;2022-09-09T11:01:08;0.10;;;0.00;;
54855;SDS011;40748;53.168;5.800;2022-09-09T11:03:33;0.10;;;0.00;;
54855;SDS011;40748;53.168;5.800;2022-09-09T11:06:05;0.30;;;0.10;;
54855;SDS011;40748;53.168;5.800;2022-09-09T11:08:34;0.30;;;0.10;;
54855;SDS011;40748;53.168;5.800;2022-09-09T11:11:04;0.30;;;0.10;;
54855;SDS011;40748;53.168;5.800;2022-09-09T11:13:38;0.30;;;0.10;;
54855;SDS011;40748;53.168;5.800;2022-09-09T11:16:09;1.20;;;0.70;;
54855;SDS011;40748;53.168;5.800;2022-09-09T11:18:38;1.20;;;0.70;;
54855;SDS011;40748;53.168;5.800;2022-09-09T11:21:03;1.20;;;0.70;;
54855;SDS011;40748;53.168;5.800;2022-09-09T11:23:38;1.20;;;0.70;;
54855;SDS011;40748;53.168;5.800;2022-09-09T11:26:03;0.60;;;0.10;;
54855;SDS011;40748;53.168;5.800;2022-09-09T11:28:41;0.60;;;0.10;;
54855;SDS011;40748;53.168;5.800;2022-09-09T11:31:16;0.60;;;0.10;;
54855;SDS011;40748;53.168;5.800;2022-09-09T11:33:48;0.60;;;0.10;;
54855;SDS011;40748;53.168;5.800;2022-09-09T11:36:16;0.10;;;0.00;;
54855;SDS011;40748;53.168;5.800;2022-09-09T11:38:41;0.10;;;0.00;;
54855;SDS011;40748;53.168;5.800;2022-09-09T11:41:04;0.10;;;0.00;;
54855;SDS011;40748;53.168;5.800;2022-09-09T11:43:38;0.10;;;0.00;;
54855;SDS011;40748;53.168;5.800;2022-09-09T11:46:02;0.50;;;0.10;;
54855;SDS011;40748;53.168;5.800;2022-09-09T11:48:34;0.50;;;0.10;;
54855;SDS011;40748;53.168;5.800;2022-09-09T11:51:05;0.50;;;0.10;;
54855;SDS011;40748;53.168;5.800;2022-09-09T11:53:32;0.50;;;0.10;;
54855;SDS011;40748;53.168;5.800;2022-09-09T11:56:06;0.40;;;0.10;;
54855;SDS011;40748;53.168;5.800;2022-09-09T11:58:37;0.40;;;0.10;;
54855;SDS011;40748;53.168;5.800;2022-09-09T12:01:12;0.40;;;0.10;;
54855;SDS011;40748;53.168;5.800;2022-09-09T12:03:35;0.40;;;0.10;;
54855;SDS011;40748;53.168;5.800;2022-09-09T12:06:09;0.20;;;0.00;;
54855;SDS011;40748;53.168;5.800;2022-09-09T12:08:34;0.20;;;0.00;;
54855;SDS011;40748;53.168;5.800;2022-09-09T12:11:02;0.20;;;0.00;;
54855;SDS011;40748;53.168;5.800;2022-09-09T12:13:32;0.20;;;0.00;;
54855;SDS011;40748;53.168;5.800;2022-09-09T12:16:03;0.30;;;0.10;;
54855;SDS011;40748;53.168;5.800;2022-09-09T12:18:35;0.30;;;0.10;;
54855;SDS011;40748;53.168;5.800;2022-09-09T12:21:07;0.30;;;0.10;;
54855;SDS011;40748;53.168;5.800;2022-09-09T12:23:39;0.30;;;0.10;;
54855;SDS011;40748;53.168;5.800;2022-09-09T12:26:16;0.30;;;0.10;;
54855;SDS011;40748;53.168;5.800;2022-09-09T12:28:42;0.30;;;0.10;;
54855;SDS011;40748;53.168;5.800;2022-09-09T12:31:06;0.30;;;0.10;;
54855;SDS011;40748;53.168;5.800;2022-09-09T12:33:34;0.30;;;0.10;;
54855;SDS011;40748;53.168;5.800;2022-09-09T12:36:04;0.20;;;0.00;;
54855;SDS011;40748;53.168;5.800;2022-09-09T12:38:35;0.20;;;0.00;;
54855;SDS011;40748;53.168;5.800;2022-09-09T12:41:02;0.20;;;0.00;;
54855;SDS011;40748;53.168;5.800;2022-09-09T12:43:32;0.20;;;0.00;;
54855;SDS011;40748;53.168;5.800;2022-09-09T12:46:07;0.20;;;0.10;;
54855;SDS011;40748;53.168;5.800;2022-09-09T12:48:35;0.20;;;0.10;;
54855;SDS011;40748;53.168;5.800;2022-09-09T12:51:03;0.20;;;0.10;;
54855;SDS011;40748;53.168;5.800;2022-09-09T12:53:33;0.20;;;0.10;;
54855;SDS011;40748;53.168;5.800;2022-09-09T12:56:04;1.00;;;0.20;;
54855;SDS011;40748;53.168;5.800;2022-09-09T12:58:32;1.00;;;0.20;;
54855;SDS011;40748;53.168;5.800;2022-09-09T13:01:03;1.00;;;0.20;;
54855;SDS011;40748;53.168;5.800;2022-09-09T13:03:33;1.00;;;0.20;;
54855;SDS011;40748;53.168;5.800;2022-09-09T13:06:11;0.20;;;0.10;;
54855;SDS011;40748;53.168;5.800;2022-09-09T13:08:32;0.20;;;0.10;;
54855;SDS011;40748;53.168;5.800;2022-09-09T13:11:06;0.20;;;0.10;;
54855;SDS011;40748;53.168;5.800;2022-09-09T13:13:37;0.20;;;0.10;;
54855;SDS011;40748;53.168;5.800;2022-09-09T13:16:04;0.30;;;0.00;;
54855;SDS011;40748;53.168;5.800;2022-09-09T13:18:34;0.30;;;0.00;;
54855;SDS011;40748;53.168;5.800;2022-09-09T13:21:02;0.30;;;0.00;;
54855;SDS011;40748;53.168;5.800;2022-09-09T13:23:34;0.30;;;0.00;;
54855;SDS011;40748;53.168;5.800;2022-09-09T13:26:04;0.10;;;0.00;;
54855;SDS011;40748;53.168;5.800;2022-09-09T13:28:32;0.10;;;0.00;;
54855;SDS011;40748;53.168;5.800;2022-09-09T13:31:04;0.10;;;0.00;;
54855;SDS011;40748;53.168;5.800;2022-09-09T13:33:33;0.10;;;0.00;;
54855;SDS011;40748;53.168;5.800;2022-09-09T13:36:04;0.10;;;0.00;;
54855;SDS011;40748;53.168;5.800;2022-09-09T13:38:33;0.10;;;0.00;;
54855;SDS011;40748;53.168;5.800;2022-09-09T13:41:04;0.10;;;0.00;;
54855;SDS011;40748;53.168;5.800;2022-09-09T13:43:36;0.10;;;0.00;;
54855;SDS011;40748;53.168;5.800;2022-09-09T13:46:04;0.30;;;0.10;;
54855;SDS011;40748;53.168;5.800;2022-09-09T13:48:32;0.30;;;0.10;;
54855;SDS011;40748;53.168;5.800;2022-09-09T13:51:04;0.30;;;0.10;;
54855;SDS011;40748;53.168;5.800;2022-09-09T13:53:32;0.30;;;0.10;;
54855;SDS011;40748;53.168;5.800;2022-09-09T13:56:02;0.40;;;0.20;;
54855;SDS011;40748;53.168;5.800;2022-09-09T13:58:32;0.40;;;0.20;;
54855;SDS011;40748;53.168;5.800;2022-09-09T14:01:02;0.40;;;0.20;;
54855;SDS011;40748;53.168;5.800;2022-09-09T14:03:32;0.40;;;0.20;;
54855;SDS011;40748;53.168;5.800;2022-09-09T14:06:02;0.20;;;0.00;;
54855;SDS011;40748;53.168;5.800;2022-09-09T14:08:32;0.20;;;0.00;;
54855;SDS011;40748;53.168;5.800;2022-09-09T14:11:02;0.20;;;0.00;;
54855;SDS011;40748;53.168;5.800;2022-09-09T14:13:32;0.20;;;0.00;;
54855;SDS011;40748;53.168;5.800;2022-09-09T14:16:02;0.50;;;0.10;;
54855;SDS011;40748;53.168;5.800;2022-09-09T14:21:02;0.50;;;0.10;;
54855;SDS011;40748;53.168;5.800;2022-09-09T14:23:32;0.50;;;0.10;;
54855;SDS011;40748;53.168;5.800;2022-09-09T14:26:02;0.20;;;0.00;;
54855;SDS011;40748;53.168;5.800;2022-09-09T14:28:32;0.20;;;0.00;;
54855;SDS011;40748;53.168;5.800;2022-09-09T14:31:03;0.20;;;0.00;;
54855;SDS011;40748;53.168;5.800;2022-09-09T14:33:32;0.20;;;0.00;;
54855;SDS011;40748;53.168;5.800;2022-09-09T14:36:03;0.10;;;0.00;;
54855;SDS011;40748;53.168;5.800;2022-09-09T14:38:34;0.10;;;0.00;;
54855;SDS011;40748;53.168;5.800;2022-09-09T14:43:32;0.10;;;0.00;;
54855;SDS011;40748;53.168;5.800;2022-09-09T14:46:05;0.10;;;0.00;;
54855;SDS011;40748;53.168;5.800;2022-09-09T14:48:32;0.10;;;0.00;;
54855;SDS011;40748;53.168;5.800;2022-09-09T14:51:06;0.10;;;0.00;;
54855;SDS011;40748;53.168;5.800;2022-09-09T14:53:32;0.10;;;0.00;;
54855;SDS011;40748;53.168;5.800;2022-09-09T14:56:05;0.40;;;0.10;;
54855;SDS011;40748;53.168;5.800;2022-09-09T14:58:32;0.40;;;0.10;;
54855;SDS011;40748;53.168;5.800;2022-09-09T15:01:03;0.40;;;0.10;;
54855;SDS011;40748;53.168;5.800;2022-09-09T15:03:32;0.40;;;0.10;;
54855;SDS011;40748;53.168;5.800;2022-09-09T15:06:06;0.30;;;0.10;;
54855;SDS011;40748;53.168;5.800;2022-09-09T15:08:32;0.30;;;0.10;;
54855;SDS011;40748;53.168;5.800;2022-09-09T15:11:03;0.30;;;0.10;;
54855;SDS011;40748;53.168;5.800;2022-09-09T15:13:32;0.30;;;0.10;;
54855;SDS011;40748;53.168;5.800;2022-09-09T15:16:04;0.20;;;0.10;;
54855;SDS011;40748;53.168;5.800;2022-09-09T15:18:32;0.20;;;0.10;;
54855;SDS011;40748;53.168;5.800;2022-09-09T15:23:32;0.20;;;0.10;;
54855;SDS011;40748;53.168;5.800;2022-09-09T15:26:03;0.40;;;0.10;;
54855;SDS011;40748;53.168;5.800;2022-09-09T15:28:33;0.40;;;0.10;;
54855;SDS011;40748;53.168;5.800;2022-09-09T15:31:05;0.40;;;0.10;;
54855;SDS011;40748;53.168;5.800;2022-09-09T15:33:32;0.40;;;0.10;;
54855;SDS011;40748;53.168;5.800;2022-09-09T15:36:13;0.50;;;0.10;;
54855;SDS011;40748;53.168;5.800;2022-09-09T15:38:32;0.50;;;0.10;;
54855;SDS011;40748;53.168;5.800;2022-09-09T15:41:02;0.50;;;0.10;;
54855;SDS011;40748;53.168;5.800;2022-09-09T15:43:32;0.50;;;0.10;;
54855;SDS011;40748;53.168;5.800;2022-09-09T15:48:32;0.40;;;0.20;;
54855;SDS011;40748;53.168;5.800;2022-09-09T15:51:03;0.40;;;0.20;;
54855;SDS011;40748;53.168;5.800;2022-09-09T15:56:02;0.50;;;0.20;;
54855;SDS011;40748;53.168;5.800;2022-09-09T15:58:32;0.50;;;0.20;;
54855;SDS011;40748;53.168;5.800;2022-09-09T16:01:02;0.50;;;0.20;;
54855;SDS011;40748;53.168;5.800;2022-09-09T16:03:33;0.50;;;0.20;;
54855;SDS011;40748;53.168;5.800;2022-09-09T16:06:02;0.50;;;0.20;;
54855;SDS011;40748;53.168;5.800;2022-09-09T16:08:32;0.10;;;0.00;;
54855;SDS011;40748;53.168;5.800;2022-09-09T16:13:33;0.10;;;0.00;;
54855;SDS011;40748;53.168;5.800;2022-09-09T16:16:03;0.10;;;0.00;;
54855;SDS011;40748;53.168;5.800;2022-09-09T16:18:35;0.10;;;0.00;;
54855;SDS011;40748;53.168;5.800;2022-09-09T16:21:03;0.10;;;0.00;;
54855;SDS011;40748;53.168;5.800;2022-09-09T16:23:32;0.10;;;0.00;;
54855;SDS011;40748;53.168;5.800;2022-09-09T16:26:02;0.10;;;0.00;;
54855;SDS011;40748;53.168;5.800;2022-09-09T16:28:32;0.20;;;0.10;;
54855;SDS011;40748;53.168;5.800;2022-09-09T16:31:03;0.20;;;0.10;;
54855;SDS011;40748;53.168;5.800;2022-09-09T16:33:32;0.20;;;0.10;;
54855;SDS011;40748;53.168;5.800;2022-09-09T16:36:05;0.20;;;0.00;;
54855;SDS011;40748;53.168;5.800;2022-09-09T16:38:32;0.20;;;0.00;;
54855;SDS011;40748;53.168;5.800;2022-09-09T16:41:04;0.20;;;0.00;;
54855;SDS011;40748;53.168;5.800;2022-09-09T16:48:32;0.20;;;0.00;;
54855;SDS011;40748;53.168;5.800;2022-09-09T16:51:02;0.20;;;0.00;;
54855;SDS011;40748;53.168;5.800;2022-09-09T16:56:05;0.90;;;0.40;;
54855;SDS011;40748;53.168;5.800;2022-09-09T16:58:32;0.90;;;0.40;;
54855;SDS011;40748;53.168;5.800;2022-09-09T17:01:03;0.90;;;0.40;;
54855;SDS011;40748;53.168;5.800;2022-09-09T17:03:32;0.90;;;0.40;;